sensor_id;sensor_type;location;lat;lon;timestamp;pressure;altitude;pressure_sealevel;temperature;humidity
47716;BME280;33476;50.984;3.538;2023-07-31T00:01:44;101272.44;;;20.22;64.03
47716;BME280;33476;50.984;3.538;2023-07-31T00:04:09;101265.19;;;20.24;63.92
47716;BME280;33476;50.984;3.538;2023-07-31T00:06:35;101268.09;;;20.20;63.99
47716;BME280;33476;50.984;3.538;2023-07-31T00:09:00;101266.41;;;20.19;63.82
47716;BME280;33476;50.984;3.538;2023-07-31T00:11:25;101261.94;;;20.20;63.90
47716;BME280;33476;50.984;3.538;2023-07-31T00:13:53;101259.41;;;20.18;63.80
47716;BME280;33476;50.984;3.538;2023-07-31T00:16:18;101250.25;;;20.23;63.60
47716;BME280;33476;50.984;3.538;2023-07-31T00:18:44;101256.97;;;20.27;63.30
47716;BME280;33476;50.984;3.538;2023-07-31T00:21:09;101255.41;;;20.24;63.44
47716;BME280;33476;50.984;3.538;2023-07-31T00:23:34;101253.16;;;20.19;63.44
47716;BME280;33476;50.984;3.538;2023-07-31T00:26:00;101253.50;;;20.15;63.69
47716;BME280;33476;50.984;3.538;2023-07-31T00:28:25;101255.59;;;20.11;63.84
47716;BME280;33476;50.984;3.538;2023-07-31T00:30:51;101261.72;;;20.12;63.88
47716;BME280;33476;50.984;3.538;2023-07-31T00:33:17;101244.59;;;20.16;63.76
47716;BME280;33476;50.984;3.538;2023-07-31T00:35:42;101241.72;;;20.19;63.50
47716;BME280;33476;50.984;3.538;2023-07-31T00:38:07;101246.88;;;20.20;63.45
47716;BME280;33476;50.984;3.538;2023-07-31T00:40:36;101246.13;;;20.18;63.47
47716;BME280;33476;50.984;3.538;2023-07-31T00:43:02;101237.59;;;20.15;63.73
47716;BME280;33476;50.984;3.538;2023-07-31T00:45:28;101249.88;;;20.16;63.79
47716;BME280;33476;50.984;3.538;2023-07-31T00:47:54;101236.50;;;20.17;63.83
47716;BME280;33476;50.984;3.538;2023-07-31T00:50:19;101247.00;;;20.19;63.66
47716;BME280;33476;50.984;3.538;2023-07-31T00:52:44;101242.66;;;20.18;63.75
47716;BME280;33476;50.984;3.538;2023-07-31T00:55:10;101234.47;;;20.21;63.67
47716;BME280;33476;50.984;3.538;2023-07-31T00:57:36;101241.44;;;20.22;63.68
47716;BME280;33476;50.984;3.538;2023-07-31T01:00:02;101238.28;;;20.28;63.52
47716;BME280;33476;50.984;3.538;2023-07-31T01:02:28;101236.59;;;20.27;63.66
47716;BME280;33476;50.984;3.538;2023-07-31T01:04:54;101232.88;;;20.30;63.31
47716;BME280;33476;50.984;3.538;2023-07-31T01:07:24;101226.25;;;20.24;63.35
47716;BME280;33476;50.984;3.538;2023-07-31T01:10:08;101232.25;;;20.26;63.34
47716;BME280;33476;50.984;3.538;2023-07-31T01:12:38;101221.97;;;20.33;63.52
47716;BME280;33476;50.984;3.538;2023-07-31T01:15:05;101219.59;;;20.30;63.60
47716;BME280;33476;50.984;3.538;2023-07-31T01:17:30;101218.63;;;20.31;63.43
47716;BME280;33476;50.984;3.538;2023-07-31T01:19:59;101218.88;;;20.28;63.67
47716;BME280;33476;50.984;3.538;2023-07-31T01:27:30;101214.53;;;20.27;63.40
47716;BME280;33476;50.984;3.538;2023-07-31T01:30:00;101212.72;;;20.27;63.33
47716;BME280;33476;50.984;3.538;2023-07-31T01:32:29;101209.81;;;20.30;63.56
47716;BME280;33476;50.984;3.538;2023-07-31T01:34:55;101206.47;;;20.28;63.41
47716;BME280;33476;50.984;3.538;2023-07-31T01:37:28;101202.38;;;20.24;63.54
47716;BME280;33476;50.984;3.538;2023-07-31T01:39:54;101198.50;;;20.28;63.40
47716;BME280;33476;50.984;3.538;2023-07-31T01:42:19;101195.84;;;20.28;63.54
47716;BME280;33476;50.984;3.538;2023-07-31T01:44:44;101202.97;;;20.28;63.54
47716;BME280;33476;50.984;3.538;2023-07-31T01:47:10;101189.44;;;20.31;63.52
47716;BME280;33476;50.984;3.538;2023-07-31T01:49:35;101189.03;;;20.35;63.19
47716;BME280;33476;50.984;3.538;2023-07-31T01:52:00;101194.81;;;20.40;63.24
47716;BME280;33476;50.984;3.538;2023-07-31T01:54:25;101182.53;;;20.39;63.31
47716;BME280;33476;50.984;3.538;2023-07-31T01:56:51;101185.19;;;20.39;63.65
47716;BME280;33476;50.984;3.538;2023-07-31T01:59:16;101175.41;;;20.40;63.43
47716;BME280;33476;50.984;3.538;2023-07-31T02:01:41;101168.44;;;20.39;63.47
47716;BME280;33476;50.984;3.538;2023-07-31T02:04:07;101158.66;;;20.39;63.45
47716;BME280;33476;50.984;3.538;2023-07-31T02:06:32;101154.56;;;20.35;63.67
47716;BME280;33476;50.984;3.538;2023-07-31T02:08:58;101156.13;;;20.38;63.74
47716;BME280;33476;50.984;3.538;2023-07-31T02:11:23;101148.31;;;20.36;63.58
47716;BME280;33476;50.984;3.538;2023-07-31T02:13:48;101145.06;;;20.33;64.05
47716;BME280;33476;50.984;3.538;2023-07-31T02:16:13;101142.28;;;20.34;64.13
47716;BME280;33476;50.984;3.538;2023-07-31T02:18:39;101140.59;;;20.33;64.19
47716;BME280;33476;50.984;3.538;2023-07-31T02:21:04;101137.69;;;20.36;64.17
47716;BME280;33476;50.984;3.538;2023-07-31T02:23:29;101146.88;;;20.32;64.40
47716;BME280;33476;50.984;3.538;2023-07-31T02:25:55;101129.84;;;20.35;64.51
47716;BME280;33476;50.984;3.538;2023-07-31T02:28:20;101129.84;;;20.35;64.43
47716;BME280;33476;50.984;3.538;2023-07-31T02:30:45;101122.50;;;20.38;64.63
47716;BME280;33476;50.984;3.538;2023-07-31T02:33:15;101123.31;;;20.39;64.70
47716;BME280;33476;50.984;3.538;2023-07-31T02:35:41;101118.72;;;20.41;64.90
47716;BME280;33476;50.984;3.538;2023-07-31T02:38:06;101117.66;;;20.43;64.88
47716;BME280;33476;50.984;3.538;2023-07-31T02:40:32;101116.91;;;20.41;65.07
47716;BME280;33476;50.984;3.538;2023-07-31T02:42:57;101114.25;;;20.41;65.46
47716;BME280;33476;50.984;3.538;2023-07-31T02:45:22;101114.88;;;20.45;65.41
47716;BME280;33476;50.984;3.538;2023-07-31T02:47:48;101106.66;;;20.48;65.41
47716;BME280;33476;50.984;3.538;2023-07-31T02:50:13;101109.44;;;20.46;65.74
47716;BME280;33476;50.984;3.538;2023-07-31T02:52:38;101112.22;;;20.45;66.12
47716;BME280;33476;50.984;3.538;2023-07-31T02:55:04;101093.75;;;20.43;66.30
47716;BME280;33476;50.984;3.538;2023-07-31T02:57:29;101091.22;;;20.42;66.63
47716;BME280;33476;50.984;3.538;2023-07-31T02:59:55;101082.22;;;20.44;66.78
47716;BME280;33476;50.984;3.538;2023-07-31T03:02:20;101072.53;;;20.43;66.97
47716;BME280;33476;50.984;3.538;2023-07-31T03:04:45;101078.78;;;20.42;67.36
47716;BME280;33476;50.984;3.538;2023-07-31T03:07:11;101079.06;;;20.39;67.75
47716;BME280;33476;50.984;3.538;2023-07-31T03:09:36;101077.63;;;20.35;68.54
47716;BME280;33476;50.984;3.538;2023-07-31T03:12:02;101080.03;;;20.38;68.60
47716;BME280;33476;50.984;3.538;2023-07-31T03:14:28;101072.31;;;20.35;68.99
47716;BME280;33476;50.984;3.538;2023-07-31T03:16:53;101067.28;;;20.32;69.29
47716;BME280;33476;50.984;3.538;2023-07-31T03:19:19;101070.53;;;20.36;69.43
47716;BME280;33476;50.984;3.538;2023-07-31T03:21:45;101069.25;;;20.30;69.85
47716;BME280;33476;50.984;3.538;2023-07-31T03:24:10;101073.94;;;20.27;70.40
47716;BME280;33476;50.984;3.538;2023-07-31T03:26:37;101059.28;;;20.23;70.81
47716;BME280;33476;50.984;3.538;2023-07-31T03:29:03;101058.56;;;20.20;70.89
47716;BME280;33476;50.984;3.538;2023-07-31T03:31:28;101052.03;;;20.25;71.03
47716;BME280;33476;50.984;3.538;2023-07-31T03:33:54;101045.03;;;20.24;71.12
47716;BME280;33476;50.984;3.538;2023-07-31T03:36:19;101030.25;;;20.21;71.23
47716;BME280;33476;50.984;3.538;2023-07-31T03:38:46;101041.94;;;20.18;71.37
47716;BME280;33476;50.984;3.538;2023-07-31T03:41:11;101036.63;;;20.18;71.54
47716;BME280;33476;50.984;3.538;2023-07-31T03:43:36;101028.44;;;20.22;71.34
47716;BME280;33476;50.984;3.538;2023-07-31T03:46:02;101022.97;;;20.23;71.52
47716;BME280;33476;50.984;3.538;2023-07-31T03:48:28;101022.59;;;20.28;71.39
47716;BME280;33476;50.984;3.538;2023-07-31T03:50:54;101027.78;;;20.29;71.40
47716;BME280;33476;50.984;3.538;2023-07-31T03:53:20;101026.81;;;20.30;71.49
47716;BME280;33476;50.984;3.538;2023-07-31T03:55:45;101026.19;;;20.27;71.59
47716;BME280;33476;50.984;3.538;2023-07-31T03:58:11;101032.25;;;20.29;71.73
47716;BME280;33476;50.984;3.538;2023-07-31T04:00:36;101022.16;;;20.23;71.76
47716;BME280;33476;50.984;3.538;2023-07-31T04:03:01;101019.34;;;20.24;71.83
47716;BME280;33476;50.984;3.538;2023-07-31T04:05:27;101012.38;;;20.23;72.04
47716;BME280;33476;50.984;3.538;2023-07-31T04:07:52;101017.94;;;20.20;72.01
47716;BME280;33476;50.984;3.538;2023-07-31T04:10:17;101012.31;;;20.13;72.42
47716;BME280;33476;50.984;3.538;2023-07-31T04:12:43;101005.84;;;20.06;72.69
47716;BME280;33476;50.984;3.538;2023-07-31T04:15:08;101009.72;;;20.02;72.78
47716;BME280;33476;50.984;3.538;2023-07-31T04:17:34;101014.31;;;20.00;72.89
47716;BME280;33476;50.984;3.538;2023-07-31T04:19:59;101019.25;;;20.05;72.75
47716;BME280;33476;50.984;3.538;2023-07-31T04:22:25;101015.34;;;20.09;72.48
47716;BME280;33476;50.984;3.538;2023-07-31T04:24:50;101012.84;;;20.07;72.60
47716;BME280;33476;50.984;3.538;2023-07-31T04:27:16;101019.25;;;20.05;72.76
47716;BME280;33476;50.984;3.538;2023-07-31T04:29:41;101018.66;;;20.01;72.90
47716;BME280;33476;50.984;3.538;2023-07-31T04:32:08;101005.84;;;20.06;72.80
47716;BME280;33476;50.984;3.538;2023-07-31T04:34:33;101009.22;;;20.08;72.63
47716;BME280;33476;50.984;3.538;2023-07-31T04:36:58;101007.53;;;20.07;72.58
47716;BME280;33476;50.984;3.538;2023-07-31T04:39:24;101005.72;;;20.08;72.61
47716;BME280;33476;50.984;3.538;2023-07-31T04:41:49;101008.66;;;20.05;72.53
47716;BME280;33476;50.984;3.538;2023-07-31T04:44:14;101013.25;;;20.03;72.76
47716;BME280;33476;50.984;3.538;2023-07-31T04:46:40;101002.75;;;20.01;72.80
47716;BME280;33476;50.984;3.538;2023-07-31T04:49:05;101003.00;;;19.98;72.99
47716;BME280;33476;50.984;3.538;2023-07-31T04:51:31;100997.16;;;19.95;72.96
47716;BME280;33476;50.984;3.538;2023-07-31T04:53:56;100994.72;;;19.91;73.31
47716;BME280;33476;50.984;3.538;2023-07-31T04:56:22;100998.81;;;19.96;73.12
47716;BME280;33476;50.984;3.538;2023-07-31T04:58:47;100987.09;;;19.98;73.32
47716;BME280;33476;50.984;3.538;2023-07-31T05:01:12;100989.38;;;20.03;73.30
47716;BME280;33476;50.984;3.538;2023-07-31T05:03:38;100981.66;;;20.00;73.47
47716;BME280;33476;50.984;3.538;2023-07-31T05:06:03;100986.13;;;19.99;73.60
47716;BME280;33476;50.984;3.538;2023-07-31T05:08:29;100976.63;;;19.97;73.84
47716;BME280;33476;50.984;3.538;2023-07-31T05:10:54;100974.81;;;19.97;73.55
47716;BME280;33476;50.984;3.538;2023-07-31T05:13:19;100970.09;;;20.01;73.70
47716;BME280;33476;50.984;3.538;2023-07-31T05:15:45;100972.22;;;20.07;73.52
47716;BME280;33476;50.984;3.538;2023-07-31T05:18:10;100968.88;;;20.05;73.50
47716;BME280;33476;50.984;3.538;2023-07-31T05:20:36;100967.19;;;20.04;73.66
47716;BME280;33476;50.984;3.538;2023-07-31T05:23:01;100966.22;;;20.05;73.62
47716;BME280;33476;50.984;3.538;2023-07-31T05:25:27;100959.25;;;20.04;73.59
47716;BME280;33476;50.984;3.538;2023-07-31T05:27:52;100966.47;;;20.02;73.47
47716;BME280;33476;50.984;3.538;2023-07-31T05:30:17;100961.28;;;20.00;73.62
47716;BME280;33476;50.984;3.538;2023-07-31T05:32:43;100962.41;;;19.98;73.76
47716;BME280;33476;50.984;3.538;2023-07-31T05:35:09;100971.34;;;19.97;73.59
47716;BME280;33476;50.984;3.538;2023-07-31T05:37:34;100968.81;;;19.95;73.52
47716;BME280;33476;50.984;3.538;2023-07-31T05:40:00;100961.44;;;19.99;73.37
47716;BME280;33476;50.984;3.538;2023-07-31T05:42:25;100958.06;;;19.97;73.24
47716;BME280;33476;50.984;3.538;2023-07-31T05:44:51;100959.75;;;19.98;73.22
47716;BME280;33476;50.984;3.538;2023-07-31T05:47:16;100960.59;;;19.98;73.33
47716;BME280;33476;50.984;3.538;2023-07-31T05:49:41;100963.81;;;20.02;73.11
47716;BME280;33476;50.984;3.538;2023-07-31T05:52:07;100953.19;;;20.02;72.84
47716;BME280;33476;50.984;3.538;2023-07-31T05:54:32;100962.88;;;20.03;72.76
47716;BME280;33476;50.984;3.538;2023-07-31T05:56:58;100954.03;;;20.02;72.57
47716;BME280;33476;50.984;3.538;2023-07-31T05:59:23;100947.53;;;20.06;72.34
47716;BME280;33476;50.984;3.538;2023-07-31T06:01:49;100943.38;;;20.13;71.97
47716;BME280;33476;50.984;3.538;2023-07-31T06:04:14;100944.78;;;20.17;71.52
47716;BME280;33476;50.984;3.538;2023-07-31T06:06:40;100938.25;;;20.22;71.32
47716;BME280;33476;50.984;3.538;2023-07-31T06:09:05;100938.94;;;20.24;70.94
47716;BME280;33476;50.984;3.538;2023-07-31T06:11:31;100935.59;;;20.22;70.76
47716;BME280;33476;50.984;3.538;2023-07-31T06:13:56;100933.94;;;20.20;70.96
47716;BME280;33476;50.984;3.538;2023-07-31T06:16:22;100932.25;;;20.19;70.60
47716;BME280;33476;50.984;3.538;2023-07-31T06:18:48;100928.75;;;20.19;70.45
47716;BME280;33476;50.984;3.538;2023-07-31T06:21:13;100927.66;;;20.22;70.12
47716;BME280;33476;50.984;3.538;2023-07-31T06:23:39;100915.09;;;20.24;70.11
47716;BME280;33476;50.984;3.538;2023-07-31T06:26:04;100919.28;;;20.26;69.85
47716;BME280;33476;50.984;3.538;2023-07-31T06:28:31;100923.34;;;20.30;70.05
47716;BME280;33476;50.984;3.538;2023-07-31T06:31:00;100918.34;;;20.37;69.89
47716;BME280;33476;50.984;3.538;2023-07-31T06:33:26;100917.25;;;20.39;69.68
47716;BME280;33476;50.984;3.538;2023-07-31T06:35:51;100912.78;;;20.40;69.58
47716;BME280;33476;50.984;3.538;2023-07-31T06:38:22;100911.47;;;20.34;69.86
47716;BME280;33476;50.984;3.538;2023-07-31T06:40:49;100912.59;;;20.32;69.62
47716;BME280;33476;50.984;3.538;2023-07-31T06:43:14;100912.59;;;20.32;69.71
47716;BME280;33476;50.984;3.538;2023-07-31T06:45:40;100914.13;;;20.34;69.80
47716;BME280;33476;50.984;3.538;2023-07-31T06:48:05;100914.59;;;20.39;69.44
47716;BME280;33476;50.984;3.538;2023-07-31T06:50:31;100920.22;;;20.46;69.31
47716;BME280;33476;50.984;3.538;2023-07-31T06:52:57;100924.69;;;20.45;69.40
47716;BME280;33476;50.984;3.538;2023-07-31T06:55:23;100930.69;;;20.47;69.15
47716;BME280;33476;50.984;3.538;2023-07-31T06:57:53;100927.91;;;20.49;69.02
47716;BME280;33476;50.984;3.538;2023-07-31T07:00:20;100932.00;;;20.53;68.79
47716;BME280;33476;50.984;3.538;2023-07-31T07:02:46;100923.31;;;20.51;68.58
47716;BME280;33476;50.984;3.538;2023-07-31T07:05:16;100919.81;;;20.51;68.36
47716;BME280;33476;50.984;3.538;2023-07-31T07:07:42;100924.72;;;20.55;68.32
47716;BME280;33476;50.984;3.538;2023-07-31T07:10:08;100934.06;;;20.59;67.81
47716;BME280;33476;50.984;3.538;2023-07-31T07:12:34;100940.13;;;20.61;67.40
47716;BME280;33476;50.984;3.538;2023-07-31T07:15:00;100938.16;;;20.63;67.60
47716;BME280;33476;50.984;3.538;2023-07-31T07:17:30;100937.72;;;20.68;67.55
47716;BME280;33476;50.984;3.538;2023-07-31T07:19:59;100934.69;;;20.72;67.49
47716;BME280;33476;50.984;3.538;2023-07-31T07:22:25;100936.34;;;20.73;67.27
47716;BME280;33476;50.984;3.538;2023-07-31T07:24:52;100935.25;;;20.76;67.34
47716;BME280;33476;50.984;3.538;2023-07-31T07:27:17;100935.81;;;20.70;68.04
47716;BME280;33476;50.984;3.538;2023-07-31T07:29:42;100936.91;;;20.67;68.48
47716;BME280;33476;50.984;3.538;2023-07-31T07:32:08;100935.66;;;20.62;68.61
47716;BME280;33476;50.984;3.538;2023-07-31T07:34:33;100933.09;;;20.60;68.95
47716;BME280;33476;50.984;3.538;2023-07-31T07:36:59;100927.78;;;20.60;68.82
47716;BME280;33476;50.984;3.538;2023-07-31T07:39:24;100924.47;;;20.68;68.79
47716;BME280;33476;50.984;3.538;2023-07-31T07:41:50;100925.03;;;20.71;68.48
47716;BME280;33476;50.984;3.538;2023-07-31T07:44:15;100917.50;;;20.76;68.66
47716;BME280;33476;50.984;3.538;2023-07-31T07:46:41;100920.06;;;20.88;68.28
47716;BME280;33476;50.984;3.538;2023-07-31T07:49:07;100918.38;;;20.96;67.88
47716;BME280;33476;50.984;3.538;2023-07-31T07:51:32;100923.16;;;21.02;67.74
47716;BME280;33476;50.984;3.538;2023-07-31T07:53:58;100906.78;;;21.07;67.59
47716;BME280;33476;50.984;3.538;2023-07-31T07:56:25;100903.16;;;21.08;67.52
47716;BME280;33476;50.984;3.538;2023-07-31T07:58:51;100919.81;;;21.10;67.20
47716;BME280;33476;50.984;3.538;2023-07-31T08:01:17;100909.59;;;21.15;67.07
47716;BME280;33476;50.984;3.538;2023-07-31T08:03:42;100909.03;;;21.21;67.09
47716;BME280;33476;50.984;3.538;2023-07-31T08:06:08;100902.38;;;21.27;67.40
47716;BME280;33476;50.984;3.538;2023-07-31T08:08:37;100900.25;;;21.30;67.15
47716;BME280;33476;50.984;3.538;2023-07-31T08:11:03;100898.56;;;21.29;66.70
47716;BME280;33476;50.984;3.538;2023-07-31T08:13:28;100906.41;;;21.31;66.90
47716;BME280;33476;50.984;3.538;2023-07-31T08:15:54;100904.44;;;21.33;66.62
47716;BME280;33476;50.984;3.538;2023-07-31T08:18:19;100902.63;;;21.34;66.93
47716;BME280;33476;50.984;3.538;2023-07-31T08:20:45;100898.84;;;21.36;66.68
47716;BME280;33476;50.984;3.538;2023-07-31T08:23:10;100898.41;;;21.41;66.63
47716;BME280;33476;50.984;3.538;2023-07-31T08:25:36;100895.34;;;21.45;66.48
47716;BME280;33476;50.984;3.538;2023-07-31T08:28:03;100883.88;;;21.45;66.44
47716;BME280;33476;50.984;3.538;2023-07-31T08:30:28;100880.50;;;21.43;66.46
47716;BME280;33476;50.984;3.538;2023-07-31T08:32:54;100888.06;;;21.47;66.39
47716;BME280;33476;50.984;3.538;2023-07-31T08:35:19;100878.69;;;21.53;66.39
47716;BME280;33476;50.984;3.538;2023-07-31T08:37:44;100868.75;;;21.55;66.08
47716;BME280;33476;50.984;3.538;2023-07-31T08:40:10;100881.88;;;21.56;66.55
47716;BME280;33476;50.984;3.538;2023-07-31T08:42:50;100869.56;;;21.65;66.60
47716;BME280;33476;50.984;3.538;2023-07-31T08:45:19;100879.28;;;21.84;65.92
47716;BME280;33476;50.984;3.538;2023-07-31T08:47:47;100880.69;;;21.88;66.01
47716;BME280;33476;50.984;3.538;2023-07-31T08:50:13;100881.53;;;21.88;66.04
47716;BME280;33476;50.984;3.538;2023-07-31T08:52:39;100878.88;;;21.88;66.27
47716;BME280;33476;50.984;3.538;2023-07-31T08:55:06;100879.97;;;21.96;66.65
47716;BME280;33476;50.984;3.538;2023-07-31T08:57:34;100876.63;;;21.94;66.61
47716;BME280;33476;50.984;3.538;2023-07-31T09:00:01;100874.69;;;21.86;66.97
47716;BME280;33476;50.984;3.538;2023-07-31T09:02:31;100875.41;;;21.78;66.94
47716;BME280;33476;50.984;3.538;2023-07-31T09:05:01;100874.72;;;21.76;66.78
47716;BME280;33476;50.984;3.538;2023-07-31T09:07:27;100876.97;;;21.71;67.25
47716;BME280;33476;50.984;3.538;2023-07-31T09:09:52;100875.16;;;21.72;67.32
47716;BME280;33476;50.984;3.538;2023-07-31T09:12:18;100873.59;;;21.79;67.20
47716;BME280;33476;50.984;3.538;2023-07-31T09:14:45;100866.16;;;21.82;67.28
47716;BME280;33476;50.984;3.538;2023-07-31T09:17:11;100869.66;;;21.83;66.94
47716;BME280;33476;50.984;3.538;2023-07-31T09:19:36;100871.31;;;21.84;67.19
47716;BME280;33476;50.984;3.538;2023-07-31T09:22:05;100878.88;;;21.88;67.23
47716;BME280;33476;50.984;3.538;2023-07-31T09:24:33;100874.81;;;21.84;67.28
47716;BME280;33476;50.984;3.538;2023-07-31T09:27:00;100869.66;;;21.83;67.10
47716;BME280;33476;50.984;3.538;2023-07-31T09:29:27;100866.16;;;21.82;67.27
47716;BME280;33476;50.984;3.538;2023-07-31T09:31:54;100871.91;;;21.78;67.46
47716;BME280;33476;50.984;3.538;2023-07-31T09:34:20;100865.75;;;21.77;67.61
47716;BME280;33476;50.984;3.538;2023-07-31T09:36:48;100864.06;;;21.86;67.46
47716;BME280;33476;50.984;3.538;2023-07-31T09:39:15;100859.41;;;21.88;67.58
47716;BME280;33476;50.984;3.538;2023-07-31T09:41:53;100850.16;;;21.92;67.46
47716;BME280;33476;50.984;3.538;2023-07-31T09:44:19;100845.81;;;21.91;67.07
47716;BME280;33476;50.984;3.538;2023-07-31T09:46:45;100846.97;;;21.88;67.45
47716;BME280;33476;50.984;3.538;2023-07-31T09:49:12;100846.66;;;21.92;67.15
47716;BME280;33476;50.984;3.538;2023-07-31T09:51:39;100849.72;;;21.97;67.19
47716;BME280;33476;50.984;3.538;2023-07-31T09:54:25;100848.31;;;22.02;67.03
47716;BME280;33476;50.984;3.538;2023-07-31T09:59:18;100840.25;;;22.22;66.74
47716;BME280;33476;50.984;3.538;2023-07-31T10:04:12;100847.31;;;22.13;66.61
47716;BME280;33476;50.984;3.538;2023-07-31T10:06:39;100847.03;;;22.06;67.13
47716;BME280;33476;50.984;3.538;2023-07-31T10:09:07;100846.19;;;22.06;67.63
47716;BME280;33476;50.984;3.538;2023-07-31T10:11:51;100835.53;;;22.06;67.75
47716;BME280;33476;50.984;3.538;2023-07-31T10:14:21;100842.41;;;22.18;68.06
47716;BME280;33476;50.984;3.538;2023-07-31T10:16:49;100842.97;;;22.12;68.08
47716;BME280;33476;50.984;3.538;2023-07-31T10:19:14;100839.19;;;22.05;68.65
47716;BME280;33476;50.984;3.538;2023-07-31T10:21:42;100836.53;;;22.05;68.99
47716;BME280;33476;50.984;3.538;2023-07-31T10:24:08;100826.19;;;22.11;69.34
47716;BME280;33476;50.984;3.538;2023-07-31T10:26:35;100822.91;;;22.18;69.54
47716;BME280;33476;50.984;3.538;2023-07-31T10:31:28;100825.38;;;22.29;68.20
47716;BME280;33476;50.984;3.538;2023-07-31T10:33:56;100823.50;;;22.39;67.78
47716;BME280;33476;50.984;3.538;2023-07-31T10:36:22;100821.22;;;22.44;67.36
47716;BME280;33476;50.984;3.538;2023-07-31T10:38:51;100815.28;;;22.50;66.80
47716;BME280;33476;50.984;3.538;2023-07-31T10:41:16;100815.00;;;22.53;66.78
47716;BME280;33476;50.984;3.538;2023-07-31T10:43:42;100831.50;;;22.57;66.51
47716;BME280;33476;50.984;3.538;2023-07-31T10:46:14;100822.00;;;22.54;66.51
47716;BME280;33476;50.984;3.538;2023-07-31T10:48:41;100828.84;;;22.57;66.13
47716;BME280;33476;50.984;3.538;2023-07-31T10:51:12;100822.91;;;22.45;66.26
47716;BME280;33476;50.984;3.538;2023-07-31T10:53:39;100820.84;;;22.39;66.26
47716;BME280;33476;50.984;3.538;2023-07-31T10:56:07;100828.50;;;22.42;66.21
47716;BME280;33476;50.984;3.538;2023-07-31T10:58:33;100813.34;;;22.52;65.73
47716;BME280;33476;50.984;3.538;2023-07-31T11:01:01;100808.22;;;22.59;65.69
47716;BME280;33476;50.984;3.538;2023-07-31T11:03:49;100807.94;;;22.62;65.62
47716;BME280;33476;50.984;3.538;2023-07-31T11:06:17;100795.06;;;22.75;65.36
47716;BME280;33476;50.984;3.538;2023-07-31T11:08:44;100803.91;;;22.76;65.02
47716;BME280;33476;50.984;3.538;2023-07-31T11:11:12;100786.41;;;22.73;65.00
47716;BME280;33476;50.984;3.538;2023-07-31T11:13:50;100782.53;;;22.67;64.91
47716;BME280;33476;50.984;3.538;2023-07-31T11:16:21;100776.75;;;22.72;64.97
47716;BME280;33476;50.984;3.538;2023-07-31T11:18:47;100792.56;;;22.74;64.60
47716;BME280;33476;50.984;3.538;2023-07-31T11:21:21;100789.06;;;22.73;64.82
47716;BME280;33476;50.984;3.538;2023-07-31T11:23:51;100783.38;;;22.68;64.75
47716;BME280;33476;50.984;3.538;2023-07-31T11:26:17;100786.41;;;22.73;64.72
47716;BME280;33476;50.984;3.538;2023-07-31T11:28:46;100776.91;;;22.70;64.86
47716;BME280;33476;50.984;3.538;2023-07-31T11:31:12;100776.56;;;22.74;64.78
47716;BME280;33476;50.984;3.538;2023-07-31T11:33:37;100770.13;;;22.76;64.45
47716;BME280;33476;50.984;3.538;2023-07-31T11:36:03;100773.16;;;22.81;63.98
47716;BME280;33476;50.984;3.538;2023-07-31T11:38:33;100768.97;;;22.79;64.40
47716;BME280;33476;50.984;3.538;2023-07-31T11:41:04;100752.44;;;22.85;64.00
47716;BME280;33476;50.984;3.538;2023-07-31T11:43:33;100747.84;;;22.95;64.05
47716;BME280;33476;50.984;3.538;2023-07-31T11:46:00;100742.56;;;23.03;63.99
47716;BME280;33476;50.984;3.538;2023-07-31T11:48:30;100734.88;;;23.00;63.75
47716;BME280;33476;50.984;3.538;2023-07-31T11:51:00;100736.19;;;22.96;63.84
47716;BME280;33476;50.984;3.538;2023-07-31T11:53:42;100740.47;;;22.89;64.30
47716;BME280;33476;50.984;3.538;2023-07-31T11:56:10;100720.53;;;22.93;63.73
47716;BME280;33476;50.984;3.538;2023-07-31T11:58:38;100715.03;;;22.94;63.57
47716;BME280;33476;50.984;3.538;2023-07-31T12:01:04;100730.97;;;22.86;63.79
47716;BME280;33476;50.984;3.538;2023-07-31T12:03:31;100717.41;;;22.80;64.03
47716;BME280;33476;50.984;3.538;2023-07-31T12:05:58;100716.72;;;22.78;64.09
47716;BME280;33476;50.984;3.538;2023-07-31T12:08:24;100733.69;;;22.77;64.18
47716;BME280;33476;50.984;3.538;2023-07-31T12:10:51;100725.00;;;22.75;65.05
47716;BME280;33476;50.984;3.538;2023-07-31T12:13:21;100725.47;;;22.70;65.51
47716;BME280;33476;50.984;3.538;2023-07-31T12:15:48;100734.63;;;22.67;66.55
47716;BME280;33476;50.984;3.538;2023-07-31T12:18:15;100731.03;;;22.59;67.35
47716;BME280;33476;50.984;3.538;2023-07-31T12:20:48;100738.03;;;22.42;68.51
47716;BME280;33476;50.984;3.538;2023-07-31T12:23:18;100734.16;;;22.36;68.65
47716;BME280;33476;50.984;3.538;2023-07-31T12:25:44;100730.28;;;22.31;69.31
47716;BME280;33476;50.984;3.538;2023-07-31T12:28:10;100737.44;;;22.30;70.27
47716;BME280;33476;50.984;3.538;2023-07-31T12:30:40;100755.81;;;22.24;71.11
47716;BME280;33476;50.984;3.538;2023-07-31T12:33:14;100749.19;;;22.00;72.43
47716;BME280;33476;50.984;3.538;2023-07-31T12:35:42;100738.19;;;21.95;73.16
47716;BME280;33476;50.984;3.538;2023-07-31T12:38:08;100748.56;;;21.88;73.58
47716;BME280;33476;50.984;3.538;2023-07-31T12:40:37;100741.50;;;21.79;74.44
47716;BME280;33476;50.984;3.538;2023-07-31T12:43:02;100742.06;;;21.73;74.74
47716;BME280;33476;50.984;3.538;2023-07-31T12:45:31;100733.00;;;21.66;74.89
47716;BME280;33476;50.984;3.538;2023-07-31T12:47:58;100735.00;;;21.64;74.94
47716;BME280;33476;50.984;3.538;2023-07-31T12:50:23;100738.06;;;21.69;74.82
47716;BME280;33476;50.984;3.538;2023-07-31T12:52:49;100725.03;;;21.66;75.24
47716;BME280;33476;50.984;3.538;2023-07-31T12:55:15;100728.44;;;21.58;75.48
47716;BME280;33476;50.984;3.538;2023-07-31T12:57:40;100720.91;;;21.54;75.44
47716;BME280;33476;50.984;3.538;2023-07-31T13:00:09;100713.97;;;21.43;76.19